Pagrindinis puslapis
METAR-TAF:

METAR-TAF

Oro uostai :

Kwethluk, Aliaska, Jungtinės Amerikos Valstijos

platuma: 60-47-25N, ilguma: 161-26-37W, Aukštis: 9 m

Dabartinis oras

Ataskaita buvo paskelbta 1 valandą ir 2 minutes, ne 02:56 UTC
Vėjas 6 kt iš Šiaurės Vakarų
Temperatūra 12°C
Drėgmė 76%
Slėgis 1001 hPa
Matomumas: 16.1 km
Su prošvaistėmis ne aukštis 7000 ft

METAR: PFKW 160256Z AUTO 31006KT 10SM BKN070 12/08 A2957 RMK AO2 SLP012 60000 T01170083 53006

Laikas: 19:58 (03:58 UTC)


TAF: trūkstamas

Orai ataskaitas ir orų prognozės (METAR, TAF).

turimą stotys yra geltonos ir raudonos taškus žemėlapyje.

Perkelti pele per norėdami pamatyti stoties vardą.

Tada spustelėkite, norėdami matyti oro stebėjimo ir prognozės.

Norėdami pakeisti žemėlapį: spustelėkite ant žalios mygtukų su juodo kryžiaus žemyn,; žalią mygtuką su brūkšneliu, jei norite nutolinti; arba žalių rodyklių gretimoms žemėlapius.


METAR-TAF: